Jarl — SFB6983 — position and weather

sailwx.info

Track history (hours):
 
Tides and Currents Weather Stations Pressure Air Temp Water Temp Dewpoint Dewpoint Depression Visibility Wind Speed Wind Dir Waves Ship Positions

Jarl

Last reported at 2017-Mar-23 09:32 UTC. Time now 2017-Mar-26 13:03 UTC.
Position N 59°21' E 018°07'.

Length 13 m.

Type: Port tender. MMSI: 265671980.

Date/timePositionNaut miles runAvg speedWind from/ knotsBaromVisibWave heightAir tempDewpointWater temp
2017-Mar-23 09:32N 59°21' E 018°07'1 0.5
2017-Mar-23 08:33N 59°21' E 018°08'1 0.5
2017-Mar-23 07:33N 59°21' E 018°07'0 0.0
2017-Mar-23 06:30N 59°21' E 018°07'1 0.5
2017-Mar-23 05:31N 59°21' E 018°08'0 0.0
2017-Mar-23 04:31N 59°21' E 018°08'0 0.0
2017-Mar-23 03:31N 59°21' E 018°08'0 0.0
2017-Mar-23 02:31N 59°21' E 018°08'0 0.0
2017-Mar-23 01:31N 59°21' E 018°08'0 0.0
2017-Mar-23 00:28N 59°21' E 018°08'0 0.0
2017-Mar-22 23:31N 59°21' E 018°08'0 0.0
2017-Mar-22 22:31N 59°21' E 018°08'0 0.0
2017-Mar-22 21:31N 59°21' E 018°08'0 0.0
2017-Mar-22 20:31N 59°21' E 018°08'0 0.0
2017-Mar-22 19:31N 59°21' E 018°08'0 0.0
2017-Mar-22 18:28N 59°21' E 018°08'0 0.0
2017-Mar-22 17:31N 59°21' E 018°08'0 0.0
2017-Mar-22 16:31N 59°21' E 018°08'0 0.0
2017-Mar-22 15:31N 59°21' E 018°08'0 0.0
2017-Mar-22 14:31N 59°21' E 018°08'0 0.0
2017-Mar-22 13:31N 59°21' E 018°08'2 0.1
2017-Mar-21 13:33N 59°19' E 018°09'5 5.3
2017-Mar-21 12:33N 59°21' E 017°59'0 0.0
2017-Mar-21 11:13N 59°21' E 017°59'1 2.1
2017-Mar-21 10:31N 59°19' E 017°60'5 5.0
2017-Mar-21 09:33N 59°20' E 018°09'0 0.0
2017-Mar-20 12:33N 59°20' E 018°09'3 3.0
2017-Mar-20 11:32N 59°18' E 018°05'3 3.5
2017-Mar-20 10:33N 59°20' E 017°60'1 0.6
2017-Mar-20 09:33N 59°21' E 017°59'0 0.0
2017-Mar-20 08:30N 59°21' E 017°59'  
2017-Mar-17 10:32N 59°21' E 017°59'0 0.0
2017-Mar-17 09:32N 59°21' E 017°59'0 0.0
2017-Mar-17 08:32N 59°21' E 017°59'0 0.1
2017-Mar-17 07:32N 59°21' E 017°59'0 0.1
2017-Mar-17 06:33N 59°21' E 017°59'0 0.0
2017-Mar-16 10:31N 59°21' E 017°59'0 0.0
2017-Mar-16 09:31N 59°21' E 017°59'0 0.0
2017-Mar-16 08:31N 59°21' E 017°59'0 0.0
2017-Mar-16 07:31N 59°21' E 017°59'0 0.0
2017-Mar-16 06:31N 59°21' E 017°59'0 0.0
2017-Mar-15 16:32N 59°21' E 017°59'0 0.0
2017-Mar-15 15:17N 59°21' E 017°59'0 0.0
2017-Mar-15 14:32N 59°21' E 017°59'0 0.0
2017-Mar-15 13:32N 59°21' E 017°59'0 0.0
2017-Mar-15 12:32N 59°21' E 017°59'0 0.0
2017-Mar-15 11:29N 59°21' E 017°59'0 0.0
2017-Mar-15 10:32N 59°21' E 017°59'0 0.0
2017-Mar-15 09:32N 59°21' E 017°59'0 0.0
2017-Mar-15 08:32N 59°21' E 017°59'0 0.0
2017-Mar-15 07:29N 59°21' E 017°59'0 0.0
2017-Mar-15 06:32N 59°21' E 017°59'0 0.0
2017-Mar-14 17:28N 59°21' E 017°59'0 0.0
2017-Mar-14 16:31N 59°21' E 017°59'0 0.0
2017-Mar-14 15:31N 59°21' E 017°59'0 0.0
2017-Mar-14 14:31N 59°21' E 017°59'0 0.0
2017-Mar-14 13:31N 59°21' E 017°59'0 0.0
2017-Mar-14 12:31N 59°21' E 017°59'0 0.0
2017-Mar-14 11:31N 59°21' E 017°59'0 0.0
2017-Mar-14 10:31N 59°21' E 017°59'0 0.0
2017-Mar-14 09:31N 59°21' E 017°59'0 0.0
2017-Mar-14 08:19N 59°21' E 017°59'0 0.0
2017-Mar-14 07:33N 59°21' E 017°59'0 0.0
2017-Mar-14 06:33N 59°21' E 017°59'0 0.0
2017-Mar-13 16:32N 59°21' E 017°59'0 0.0
2017-Mar-13 15:32N 59°21' E 017°59'0 0.0
2017-Mar-13 14:32N 59°21' E 017°59'0 0.0
2017-Mar-13 13:32N 59°21' E 017°59'0 0.0
2017-Mar-13 12:32N 59°21' E 017°59'0 0.0
2017-Mar-13 11:33N 59°21' E 017°59'0 0.0
2017-Mar-13 10:31N 59°21' E 017°59'  
Track history (hours):
 
Tides and Currents Weather Stations Pressure Air Temp Water Temp Dewpoint Dewpoint Depression Visibility Wind Speed Wind Dir Waves Ship Positions

Jarl

Last reported at 2017-Mar-23 09:32 UTC. Time now 2017-Mar-26 13:03 UTC.
Position N 59°21' E 018°07'.

Length 13 m.

Type: Port tender. MMSI: 265671980.

Date/timePositionNaut miles runAvg speedWind from/ knotsBaromVisibWave heightAir tempDewpointWater temp
2017-Mar-23 09:32N 59°21' E 018°07'1 0.5
2017-Mar-23 08:33N 59°21' E 018°08'1 0.5
2017-Mar-23 07:33N 59°21' E 018°07'0 0.0
2017-Mar-23 06:30N 59°21' E 018°07'1 0.5
2017-Mar-23 05:31N 59°21' E 018°08'0 0.0
2017-Mar-23 04:31N 59°21' E 018°08'0 0.0
2017-Mar-23 03:31N 59°21' E 018°08'0 0.0
2017-Mar-23 02:31N 59°21' E 018°08'0 0.0
2017-Mar-23 01:31N 59°21' E 018°08'0 0.0
2017-Mar-23 00:28N 59°21' E 018°08'0 0.0
2017-Mar-22 23:31N 59°21' E 018°08'0 0.0
2017-Mar-22 22:31N 59°21' E 018°08'0 0.0
2017-Mar-22 21:31N 59°21' E 018°08'0 0.0
2017-Mar-22 20:31N 59°21' E 018°08'0 0.0
2017-Mar-22 19:31N 59°21' E 018°08'0 0.0
2017-Mar-22 18:28N 59°21' E 018°08'0 0.0
2017-Mar-22 17:31N 59°21' E 018°08'0 0.0
2017-Mar-22 16:31N 59°21' E 018°08'0 0.0
2017-Mar-22 15:31N 59°21' E 018°08'0 0.0
2017-Mar-22 14:31N 59°21' E 018°08'0 0.0
2017-Mar-22 13:31N 59°21' E 018°08'2 0.1
2017-Mar-21 13:33N 59°19' E 018°09'5 5.3
2017-Mar-21 12:33N 59°21' E 017°59'0 0.0
2017-Mar-21 11:13N 59°21' E 017°59'1 2.1
2017-Mar-21 10:31N 59°19' E 017°60'5 5.0
2017-Mar-21 09:33N 59°20' E 018°09'0 0.0
2017-Mar-20 12:33N 59°20' E 018°09'3 3.0
2017-Mar-20 11:32N 59°18' E 018°05'3 3.5
2017-Mar-20 10:33N 59°20' E 017°60'1 0.6
2017-Mar-20 09:33N 59°21' E 017°59'0 0.0
2017-Mar-20 08:30N 59°21' E 017°59'  
2017-Mar-17 10:32N 59°21' E 017°59'0 0.0
2017-Mar-17 09:32N 59°21' E 017°59'0 0.0
2017-Mar-17 08:32N 59°21' E 017°59'0 0.1
2017-Mar-17 07:32N 59°21' E 017°59'0 0.1
2017-Mar-17 06:33N 59°21' E 017°59'0 0.0
2017-Mar-16 10:31N 59°21' E 017°59'0 0.0
2017-Mar-16 09:31N 59°21' E 017°59'0 0.0
2017-Mar-16 08:31N 59°21' E 017°59'0 0.0
2017-Mar-16 07:31N 59°21' E 017°59'0 0.0
2017-Mar-16 06:31N 59°21' E 017°59'0 0.0
2017-Mar-15 16:32N 59°21' E 017°59'0 0.0
2017-Mar-15 15:17N 59°21' E 017°59'0 0.0
2017-Mar-15 14:32N 59°21' E 017°59'0 0.0
2017-Mar-15 13:32N 59°21' E 017°59'0 0.0
2017-Mar-15 12:32N 59°21' E 017°59'0 0.0
2017-Mar-15 11:29N 59°21' E 017°59'0 0.0
2017-Mar-15 10:32N 59°21' E 017°59'0 0.0
2017-Mar-15 09:32N 59°21' E 017°59'0 0.0
2017-Mar-15 08:32N 59°21' E 017°59'0 0.0
2017-Mar-15 07:29N 59°21' E 017°59'0 0.0
2017-Mar-15 06:32N 59°21' E 017°59'0 0.0
2017-Mar-14 17:28N 59°21' E 017°59'0 0.0
2017-Mar-14 16:31N 59°21' E 017°59'0 0.0
2017-Mar-14 15:31N 59°21' E 017°59'0 0.0
2017-Mar-14 14:31N 59°21' E 017°59'0 0.0
2017-Mar-14 13:31N 59°21' E 017°59'0 0.0
2017-Mar-14 12:31N 59°21' E 017°59'0 0.0
2017-Mar-14 11:31N 59°21' E 017°59'0 0.0
2017-Mar-14 10:31N 59°21' E 017°59'0 0.0
2017-Mar-14 09:31N 59°21' E 017°59'0 0.0
2017-Mar-14 08:19N 59°21' E 017°59'0 0.0
2017-Mar-14 07:33N 59°21' E 017°59'0 0.0
2017-Mar-14 06:33N 59°21' E 017°59'0 0.0
2017-Mar-13 16:32N 59°21' E 017°59'0 0.0
2017-Mar-13 15:32N 59°21' E 017°59'0 0.0
2017-Mar-13 14:32N 59°21' E 017°59'0 0.0
2017-Mar-13 13:32N 59°21' E 017°59'0 0.0
2017-Mar-13 12:32N 59°21' E 017°59'0 0.0
2017-Mar-13 11:33N 59°21' E 017°59'0 0.0
2017-Mar-13 10:31N 59°21' E 017°59'  

Dump ship's entire track history